Terminal Aerodrome Forecast
Issued by NWS Atlanta, GA

Home | Current Version | Previous Version | Text Only | Print | Product List | Glossary On
Versions: 1 2 3 4 5 6 7 8 9 10 11 12 13 14 15 16 17 18 19 20
445
FTUS42 KFFC 241120
TAFMCN
TAF
KMCN 241120Z 2412/2512 00000KT P6SM SCT250
     FM241500 24004KT P6SM SCT035
     FM241800 21006KT P6SM VCSH SCT050 PROB30 2421/2424 4SM TSRA
      BKN040CB
     FM250200 00000KT P6SM SCT250=

USA.gov is the U.S. government's official web portal to all federal, state and local government web resources and services.